NOZ397 ENSB-ENTC
Flight info
| Callsign | NOZ397 |
|---|---|
| Flight time | 1h 34m |
| Altitude | 39000 |
| Route | AMPIS P853 LOMVI |
| Aircraft | B38M/M-SDE1FGHILORVWXY/HB1 |
Departure
| Time | 2026-04-27 20:25 |
|---|---|
| Airport | Svalbard Airport, Longyear (ENSB) |
Arrival
| Time | 2026-04-27 22:00 |
|---|---|
| Airport | Tromsø Airport (ENTC) |
| Time | Latitude | Longitude | Altitude | Speed | Heading |
|---|---|---|---|---|---|
| 2026-04-27 20:17 | 78.24654 | 15.48924 | 90 ft | 0 kts | 103° |
| 2026-04-27 20:20 | 78.24653 | 15.48943 | 90 ft | 2 kts | 103° |
| 2026-04-27 20:20 | 78.24648 | 15.49044 | 94 ft | 4 kts | 110° |
| 2026-04-27 20:21 | 78.24633 | 15.49079 | 93 ft | 1 kts | 203° |
| 2026-04-27 20:21 | 78.24630 | 15.49014 | 93 ft | 4 kts | 263° |
| 2026-04-27 20:21 | 78.24613 | 15.48723 | 91 ft | 14 kts | 236° |
| 2026-04-27 20:21 | 78.24579 | 15.48220 | 92 ft | 11 kts | 249° |
| 2026-04-27 20:22 | 78.24542 | 15.47867 | 93 ft | 12 kts | 271° |
| 2026-04-27 20:22 | 78.24562 | 15.47427 | 93 ft | 15 kts | 285° |
| 2026-04-27 20:22 | 78.24594 | 15.46862 | 96 ft | 20 kts | 287° |
| 2026-04-27 20:22 | 78.24639 | 15.46092 | 97 ft | 27 kts | 285° |
| 2026-04-27 20:23 | 78.24691 | 15.45158 | 100 ft | 30 kts | 285° |
| 2026-04-27 20:23 | 78.24751 | 15.44098 | 97 ft | 34 kts | 285° |
| 2026-04-27 20:23 | 78.24814 | 15.42939 | 93 ft | 36 kts | 284° |
| 2026-04-27 20:23 | 78.24875 | 15.41890 | 89 ft | 20 kts | 285° |
| 2026-04-27 20:24 | 78.24918 | 15.41348 | 88 ft | 11 kts | 302° |
| 2026-04-27 20:24 | 78.24916 | 15.41209 | 87 ft | 1 kts | 172° |
| 2026-04-27 20:24 | 78.24913 | 15.41229 | 87 ft | 1 kts | 124° |
| 2026-04-27 20:24 | 78.24887 | 15.41603 | 88 ft | 34 kts | 103° |
| 2026-04-27 20:25 | 78.24741 | 15.44217 | 97 ft | 123 kts | 105° |
| 2026-04-27 20:25 | 78.24447 | 15.49360 | 339 ft | 173 kts | 107° |
| 2026-04-27 20:25 | 78.24094 | 15.54868 | 1538 ft | 165 kts | 107° |
| 2026-04-27 20:25 | 78.23782 | 15.60411 | 2580 ft | 177 kts | 104° |
| 2026-04-27 20:26 | 78.23457 | 15.66606 | 3233 ft | 197 kts | 107° |
| 2026-04-27 20:26 | 78.22905 | 15.73083 | 3814 ft | 224 kts | 120° |
| 2026-04-27 20:26 | 78.21935 | 15.79684 | 4512 ft | 247 kts | 128° |
| 2026-04-27 20:26 | 78.20850 | 15.86524 | 5380 ft | 264 kts | 128° |
| 2026-04-27 20:27 | 78.19712 | 15.93715 | 6536 ft | 267 kts | 128° |
| 2026-04-27 20:27 | 78.18565 | 16.00970 | 7553 ft | 275 kts | 127° |
| 2026-04-27 20:27 | 78.17464 | 16.08653 | 8575 ft | 280 kts | 121° |
| 2026-04-27 20:27 | 78.16448 | 16.16829 | 9601 ft | 286 kts | 121° |
| 2026-04-27 20:28 | 78.15388 | 16.25218 | 10585 ft | 293 kts | 121° |
| 2026-04-27 20:28 | 78.14290 | 16.33794 | 11211 ft | 311 kts | 121° |
| 2026-04-27 20:28 | 78.13113 | 16.42893 | 11841 ft | 325 kts | 122° |
| 2026-04-27 20:28 | 78.12295 | 16.49177 | 12334 ft | 332 kts | 122° |
| 2026-04-27 20:29 | 78.10632 | 16.61884 | 13579 ft | 338 kts | 121° |
| 2026-04-27 20:29 | 78.09359 | 16.71548 | 14389 ft | 344 kts | 121° |
| 2026-04-27 20:29 | 78.08044 | 16.81485 | 15123 ft | 351 kts | 121° |
| 2026-04-27 20:29 | 78.06724 | 16.91408 | 15839 ft | 357 kts | 121° |
| 2026-04-27 20:30 | 78.05356 | 17.01640 | 16569 ft | 363 kts | 121° |
| 2026-04-27 20:30 | 78.03977 | 17.11898 | 17275 ft | 369 kts | 121° |
| 2026-04-27 20:30 | 78.02581 | 17.22241 | 17949 ft | 374 kts | 121° |
| 2026-04-27 20:30 | 78.01135 | 17.32897 | 18613 ft | 381 kts | 121° |
| 2026-04-27 20:31 | 77.99680 | 17.43569 | 19196 ft | 386 kts | 121° |
| 2026-04-27 20:31 | 77.98207 | 17.54319 | 19773 ft | 390 kts | 121° |
| 2026-04-27 20:31 | 77.96391 | 17.64089 | 20343 ft | 397 kts | 141° |
| 2026-04-27 20:31 | 77.93997 | 17.70626 | 20874 ft | 402 kts | 162° |
| 2026-04-27 20:32 | 77.91256 | 17.73518 | 21415 ft | 403 kts | 176° |
| 2026-04-27 20:32 | 77.88467 | 17.75158 | 21917 ft | 408 kts | 176° |
| 2026-04-27 20:32 | 77.85612 | 17.76721 | 22441 ft | 413 kts | 177° |
| 2026-04-27 20:32 | 77.82762 | 17.78192 | 22976 ft | 417 kts | 177° |
| 2026-04-27 20:33 | 77.79841 | 17.79643 | 23497 ft | 422 kts | 178° |
| 2026-04-27 20:33 | 77.76929 | 17.81057 | 23982 ft | 427 kts | 178° |
| 2026-04-27 20:33 | 77.73931 | 17.82504 | 24445 ft | 430 kts | 178° |
| 2026-04-27 20:33 | 77.70960 | 17.83929 | 24984 ft | 431 kts | 177° |
| 2026-04-27 20:34 | 77.67988 | 17.85341 | 25483 ft | 433 kts | 177° |
| 2026-04-27 20:34 | 77.64986 | 17.86763 | 25932 ft | 436 kts | 177° |
| 2026-04-27 20:34 | 77.61943 | 17.88198 | 26372 ft | 438 kts | 177° |
| 2026-04-27 20:34 | 77.58912 | 17.89620 | 26802 ft | 441 kts | 177° |
| 2026-04-27 20:35 | 77.55839 | 17.91054 | 27219 ft | 443 kts | 177° |
| 2026-04-27 20:35 | 77.52760 | 17.92484 | 27645 ft | 446 kts | 177° |
| 2026-04-27 20:35 | 77.49674 | 17.93911 | 28059 ft | 449 kts | 177° |
| 2026-04-27 20:35 | 77.46586 | 17.95331 | 28459 ft | 451 kts | 177° |
| 2026-04-27 20:36 | 77.43426 | 17.96778 | 28860 ft | 454 kts | 177° |
| 2026-04-27 20:36 | 77.40307 | 17.98199 | 29252 ft | 456 kts | 177° |
| 2026-04-27 20:36 | 77.37144 | 17.99634 | 29632 ft | 459 kts | 177° |
| 2026-04-27 20:36 | 77.33942 | 18.01079 | 29949 ft | 462 kts | 177° |
| 2026-04-27 20:37 | 77.30737 | 18.02519 | 30222 ft | 466 kts | 177° |
| 2026-04-27 20:37 | 77.27475 | 18.03982 | 30553 ft | 469 kts | 177° |
| 2026-04-27 20:37 | 77.24236 | 18.05474 | 30866 ft | 470 kts | 177° |
| 2026-04-27 20:37 | 77.20994 | 18.06957 | 31204 ft | 471 kts | 177° |
| 2026-04-27 20:38 | 77.17709 | 18.08452 | 31532 ft | 472 kts | 177° |
| 2026-04-27 20:38 | 77.14455 | 18.09925 | 31852 ft | 473 kts | 177° |
| 2026-04-27 20:38 | 77.11188 | 18.11397 | 32162 ft | 474 kts | 177° |
| 2026-04-27 20:38 | 77.07876 | 18.12881 | 32474 ft | 476 kts | 177° |
| 2026-04-27 20:39 | 77.04596 | 18.14343 | 32775 ft | 477 kts | 177° |
| 2026-04-27 20:39 | 77.01302 | 18.15805 | 33071 ft | 478 kts | 177° |
| 2026-04-27 20:39 | 76.97972 | 18.17274 | 33365 ft | 479 kts | 177° |
| 2026-04-27 20:39 | 76.94682 | 18.18718 | 33609 ft | 481 kts | 177° |
| 2026-04-27 20:40 | 76.91348 | 18.20176 | 33830 ft | 484 kts | 177° |
| 2026-04-27 20:40 | 76.87954 | 18.21651 | 34132 ft | 485 kts | 177° |
| 2026-04-27 20:40 | 76.84642 | 18.23084 | 34429 ft | 485 kts | 177° |
| 2026-04-27 20:40 | 76.81274 | 18.24535 | 34770 ft | 483 kts | 176° |
| 2026-04-27 20:41 | 76.77941 | 18.25963 | 35105 ft | 481 kts | 176° |
| 2026-04-27 20:41 | 76.74629 | 18.27374 | 35416 ft | 480 kts | 176° |
| 2026-04-27 20:41 | 76.71279 | 18.28795 | 35707 ft | 479 kts | 176° |
| 2026-04-27 20:41 | 76.67959 | 18.30195 | 35996 ft | 479 kts | 176° |
| 2026-04-27 20:42 | 76.64660 | 18.31581 | 36274 ft | 478 kts | 176° |
| 2026-04-27 20:42 | 76.61336 | 18.32969 | 36556 ft | 478 kts | 176° |
| 2026-04-27 20:42 | 76.58051 | 18.34335 | 36839 ft | 477 kts | 176° |
| 2026-04-27 20:42 | 76.54771 | 18.35692 | 37069 ft | 477 kts | 176° |
| 2026-04-27 20:43 | 76.51448 | 18.37062 | 37264 ft | 478 kts | 176° |
| 2026-04-27 20:43 | 76.48148 | 18.38416 | 37523 ft | 478 kts | 176° |
| 2026-04-27 20:43 | 76.44820 | 18.39762 | 37792 ft | 477 kts | 176° |
| 2026-04-27 20:43 | 76.41519 | 18.41044 | 38033 ft | 476 kts | 176° |
| 2026-04-27 20:44 | 76.38239 | 18.42321 | 38284 ft | 476 kts | 176° |
| 2026-04-27 20:44 | 76.34961 | 18.43591 | 38532 ft | 475 kts | 176° |
| 2026-04-27 20:44 | 76.31678 | 18.44858 | 38750 ft | 475 kts | 176° |
| 2026-04-27 20:44 | 76.28358 | 18.46134 | 38971 ft | 474 kts | 176° |
| 2026-04-27 20:45 | 76.25110 | 18.47375 | 39145 ft | 474 kts | 176° |
| 2026-04-27 20:45 | 76.21808 | 18.48632 | 39282 ft | 474 kts | 176° |
| 2026-04-27 20:45 | 76.15241 | 18.51113 | 39306 ft | 474 kts | 176° |
| 2026-04-27 20:46 | 76.08668 | 18.53574 | 39317 ft | 474 kts | 176° |
| 2026-04-27 20:46 | 76.02133 | 18.55999 | 39318 ft | 474 kts | 176° |
| 2026-04-27 20:47 | 75.95549 | 18.58418 | 39319 ft | 474 kts | 176° |
| 2026-04-27 20:47 | 75.89007 | 18.60802 | 39325 ft | 474 kts | 176° |
| 2026-04-27 20:48 | 75.83561 | 18.62769 | 39320 ft | 473 kts | 176° |
| 2026-04-27 20:48 | 75.75917 | 18.65504 | 39307 ft | 474 kts | 176° |
| 2026-04-27 20:49 | 75.69316 | 18.67843 | 39316 ft | 475 kts | 176° |
| 2026-04-27 20:49 | 75.62738 | 18.70154 | 39316 ft | 475 kts | 176° |
| 2026-04-27 20:50 | 75.56194 | 18.72431 | 39316 ft | 475 kts | 176° |
| 2026-04-27 20:50 | 75.49599 | 18.74706 | 39317 ft | 475 kts | 176° |
| 2026-04-27 20:51 | 75.43017 | 18.76957 | 39316 ft | 475 kts | 176° |
| 2026-04-27 20:51 | 75.36459 | 18.79179 | 39312 ft | 476 kts | 176° |
| 2026-04-27 20:52 | 75.29866 | 18.81394 | 39316 ft | 477 kts | 176° |
| 2026-04-27 20:52 | 75.23264 | 18.83592 | 39326 ft | 476 kts | 176° |
| 2026-04-27 20:53 | 75.16635 | 18.85780 | 39324 ft | 477 kts | 176° |
| 2026-04-27 20:53 | 75.10035 | 18.87939 | 39317 ft | 477 kts | 176° |
| 2026-04-27 20:54 | 75.01257 | 18.90782 | 39332 ft | 476 kts | 176° |
| 2026-04-27 20:55 | 74.93560 | 18.93248 | 39326 ft | 477 kts | 176° |
| 2026-04-27 20:55 | 74.86948 | 18.95347 | 39318 ft | 477 kts | 176° |
| 2026-04-27 20:56 | 74.81452 | 18.97078 | 39321 ft | 477 kts | 176° |
| 2026-04-27 20:56 | 74.74834 | 18.99146 | 39321 ft | 477 kts | 176° |
| 2026-04-27 20:57 | 74.68215 | 19.01197 | 39319 ft | 477 kts | 176° |
| 2026-04-27 20:57 | 74.61592 | 19.03232 | 39303 ft | 477 kts | 176° |
| 2026-04-27 20:58 | 74.54996 | 19.05241 | 39318 ft | 478 kts | 176° |
| 2026-04-27 20:58 | 74.48348 | 19.07250 | 39316 ft | 478 kts | 176° |
| 2026-04-27 20:59 | 74.41713 | 19.09238 | 39316 ft | 478 kts | 176° |
| 2026-04-27 20:59 | 74.35109 | 19.11200 | 39318 ft | 478 kts | 176° |
| 2026-04-27 21:00 | 74.28464 | 19.13158 | 39320 ft | 478 kts | 176° |
| 2026-04-27 21:00 | 74.21871 | 19.15086 | 39305 ft | 479 kts | 177° |
| 2026-04-27 21:01 | 74.15214 | 19.17015 | 39318 ft | 480 kts | 177° |
| 2026-04-27 21:01 | 74.08584 | 19.18921 | 39319 ft | 479 kts | 176° |
| 2026-04-27 21:02 | 74.01944 | 19.20814 | 39316 ft | 479 kts | 176° |
| 2026-04-27 21:02 | 73.95297 | 19.22695 | 39316 ft | 479 kts | 176° |
| 2026-04-27 21:03 | 73.88671 | 19.24554 | 39317 ft | 479 kts | 176° |
| 2026-04-27 21:03 | 73.82036 | 19.26401 | 39316 ft | 479 kts | 176° |
| 2026-04-27 21:04 | 73.75400 | 19.28233 | 39313 ft | 479 kts | 176° |
| 2026-04-27 21:04 | 73.68735 | 19.30058 | 39315 ft | 479 kts | 176° |
| 2026-04-27 21:05 | 73.62097 | 19.31862 | 39314 ft | 479 kts | 176° |
| 2026-04-27 21:05 | 73.55480 | 19.33646 | 39314 ft | 479 kts | 176° |
| 2026-04-27 21:06 | 73.48819 | 19.35428 | 39312 ft | 479 kts | 176° |
| 2026-04-27 21:06 | 73.42209 | 19.37183 | 39305 ft | 480 kts | 176° |
| 2026-04-27 21:07 | 73.35549 | 19.38936 | 39306 ft | 480 kts | 177° |
| 2026-04-27 21:07 | 73.28892 | 19.40676 | 39304 ft | 480 kts | 177° |
| 2026-04-27 21:08 | 73.22229 | 19.42404 | 39314 ft | 479 kts | 176° |
| 2026-04-27 21:08 | 73.15576 | 19.44115 | 39303 ft | 478 kts | 176° |
| 2026-04-27 21:09 | 73.08961 | 19.45805 | 39307 ft | 478 kts | 176° |
| 2026-04-27 21:09 | 73.02295 | 19.47493 | 39314 ft | 480 kts | 176° |
| 2026-04-27 21:10 | 72.95668 | 19.49160 | 39307 ft | 480 kts | 176° |
| 2026-04-27 21:10 | 72.88991 | 19.50826 | 39307 ft | 480 kts | 176° |
| 2026-04-27 21:11 | 72.82343 | 19.52473 | 39313 ft | 480 kts | 176° |
| 2026-04-27 21:11 | 72.75687 | 19.54109 | 39310 ft | 480 kts | 176° |
| 2026-04-27 21:12 | 72.69023 | 19.55734 | 39285 ft | 480 kts | 177° |
| 2026-04-27 21:12 | 72.62375 | 19.57344 | 39307 ft | 481 kts | 177° |
| 2026-04-27 21:13 | 72.55714 | 19.58946 | 39308 ft | 481 kts | 177° |
| 2026-04-27 21:13 | 72.49018 | 19.60544 | 39309 ft | 481 kts | 177° |
| 2026-04-27 21:14 | 72.42373 | 19.62119 | 39308 ft | 481 kts | 177° |
| 2026-04-27 21:14 | 72.35680 | 19.63695 | 39321 ft | 480 kts | 176° |
| 2026-04-27 21:15 | 72.29009 | 19.65254 | 39306 ft | 480 kts | 176° |
| 2026-04-27 21:15 | 72.22374 | 19.66793 | 39309 ft | 481 kts | 176° |
| 2026-04-27 21:16 | 72.15702 | 19.68331 | 39309 ft | 481 kts | 176° |
| 2026-04-27 21:16 | 72.09038 | 19.69753 | 39309 ft | 480 kts | 181° |
| 2026-04-27 21:16 | 72.05747 | 19.68586 | 39322 ft | 475 kts | 192° |
| 2026-04-27 21:17 | 72.02462 | 19.66902 | 39293 ft | 478 kts | 189° |
| 2026-04-27 21:17 | 71.95861 | 19.63679 | 39300 ft | 479 kts | 190° |
| 2026-04-27 21:18 | 71.89297 | 19.60401 | 39315 ft | 480 kts | 190° |
| 2026-04-27 21:18 | 71.82702 | 19.57122 | 39311 ft | 480 kts | 190° |
| 2026-04-27 21:19 | 71.76082 | 19.53853 | 39314 ft | 480 kts | 190° |
| 2026-04-27 21:19 | 71.69522 | 19.50637 | 39314 ft | 480 kts | 190° |
| 2026-04-27 21:20 | 71.59621 | 19.45826 | 39303 ft | 480 kts | 190° |
| 2026-04-27 21:20 | 71.53002 | 19.42638 | 39321 ft | 482 kts | 190° |
| 2026-04-27 21:21 | 71.46359 | 19.39460 | 39321 ft | 482 kts | 190° |
| 2026-04-27 21:21 | 71.39731 | 19.36312 | 39318 ft | 482 kts | 190° |
| 2026-04-27 21:22 | 71.36465 | 19.34768 | 38924 ft | 477 kts | 190° |
| 2026-04-27 21:22 | 71.33137 | 19.33200 | 37938 ft | 484 kts | 190° |
| 2026-04-27 21:22 | 71.29806 | 19.31637 | 37032 ft | 489 kts | 190° |
| 2026-04-27 21:22 | 71.26459 | 19.30072 | 36426 ft | 482 kts | 190° |
| 2026-04-27 21:23 | 71.23208 | 19.28557 | 36083 ft | 467 kts | 190° |
| 2026-04-27 21:23 | 71.20045 | 19.27088 | 35723 ft | 455 kts | 191° |
| 2026-04-27 21:23 | 71.16924 | 19.25643 | 35268 ft | 453 kts | 191° |
| 2026-04-27 21:23 | 71.13783 | 19.24193 | 34703 ft | 454 kts | 191° |
| 2026-04-27 21:24 | 71.10664 | 19.22758 | 34089 ft | 456 kts | 191° |
| 2026-04-27 21:24 | 71.07502 | 19.21308 | 33455 ft | 457 kts | 191° |
| 2026-04-27 21:24 | 71.04368 | 19.19875 | 32941 ft | 455 kts | 191° |
| 2026-04-27 21:24 | 71.01265 | 19.18462 | 32490 ft | 452 kts | 191° |
| 2026-04-27 21:25 | 70.98180 | 19.17061 | 32018 ft | 450 kts | 191° |
| 2026-04-27 21:25 | 70.95104 | 19.15668 | 31503 ft | 449 kts | 191° |
| 2026-04-27 21:25 | 70.92000 | 19.14271 | 31015 ft | 449 kts | 191° |
| 2026-04-27 21:25 | 70.88884 | 19.12867 | 30495 ft | 449 kts | 191° |
| 2026-04-27 21:26 | 70.85841 | 19.11502 | 29940 ft | 448 kts | 191° |
| 2026-04-27 21:26 | 70.82750 | 19.10121 | 29415 ft | 446 kts | 191° |
| 2026-04-27 21:26 | 70.79678 | 19.08752 | 28944 ft | 443 kts | 191° |
| 2026-04-27 21:26 | 70.76632 | 19.07399 | 28481 ft | 440 kts | 191° |
| 2026-04-27 21:27 | 70.73645 | 19.06075 | 28020 ft | 438 kts | 191° |
| 2026-04-27 21:27 | 70.70623 | 19.04739 | 27566 ft | 436 kts | 191° |
| 2026-04-27 21:27 | 70.67618 | 19.03414 | 27101 ft | 432 kts | 191° |
| 2026-04-27 21:27 | 70.64705 | 19.02135 | 26647 ft | 422 kts | 191° |
| 2026-04-27 21:28 | 70.61815 | 19.01031 | 26202 ft | 414 kts | 184° |
| 2026-04-27 21:28 | 70.58952 | 19.00995 | 25742 ft | 407 kts | 182° |
| 2026-04-27 21:28 | 70.56151 | 19.00961 | 25339 ft | 398 kts | 182° |
| 2026-04-27 21:28 | 70.53460 | 19.00918 | 24964 ft | 397 kts | 182° |
| 2026-04-27 21:29 | 70.50661 | 19.00875 | 24557 ft | 405 kts | 182° |
| 2026-04-27 21:29 | 70.47827 | 19.00832 | 24146 ft | 410 kts | 182° |
| 2026-04-27 21:29 | 70.44968 | 19.00788 | 23667 ft | 412 kts | 182° |
| 2026-04-27 21:29 | 70.42086 | 19.00744 | 23190 ft | 412 kts | 182° |
| 2026-04-27 21:30 | 70.39225 | 19.00700 | 22754 ft | 410 kts | 182° |
| 2026-04-27 21:30 | 70.36413 | 19.00657 | 22342 ft | 408 kts | 182° |
| 2026-04-27 21:30 | 70.33580 | 19.00614 | 21921 ft | 407 kts | 182° |
| 2026-04-27 21:30 | 70.30750 | 19.00571 | 21495 ft | 405 kts | 182° |
| 2026-04-27 21:31 | 70.27929 | 19.00528 | 21079 ft | 404 kts | 181° |
| 2026-04-27 21:31 | 70.25126 | 19.00485 | 20659 ft | 402 kts | 181° |
| 2026-04-27 21:31 | 70.22331 | 19.00443 | 20253 ft | 401 kts | 181° |
| 2026-04-27 21:31 | 70.19547 | 19.00401 | 19808 ft | 396 kts | 181° |
| 2026-04-27 21:32 | 70.16831 | 19.00360 | 19453 ft | 383 kts | 181° |
| 2026-04-27 21:32 | 70.14198 | 19.00320 | 19066 ft | 373 kts | 181° |
| 2026-04-27 21:32 | 70.11664 | 19.00283 | 18697 ft | 363 kts | 181° |
| 2026-04-27 21:32 | 70.09172 | 19.00083 | 18230 ft | 353 kts | 190° |
| 2026-04-27 21:33 | 70.06896 | 18.97955 | 17870 ft | 334 kts | 211° |
| 2026-04-27 21:33 | 70.04803 | 18.95024 | 17555 ft | 331 kts | 209° |
| 2026-04-27 21:33 | 70.02755 | 18.92190 | 17229 ft | 329 kts | 210° |
| 2026-04-27 21:33 | 70.00689 | 18.89297 | 16886 ft | 327 kts | 210° |
| 2026-04-27 21:34 | 69.98639 | 18.86413 | 16535 ft | 325 kts | 210° |
| 2026-04-27 21:34 | 69.96609 | 18.83551 | 15961 ft | 331 kts | 209° |
| 2026-04-27 21:34 | 69.94523 | 18.80610 | 15476 ft | 334 kts | 209° |
| 2026-04-27 21:34 | 69.92441 | 18.77677 | 15099 ft | 328 kts | 209° |
| 2026-04-27 21:35 | 69.90424 | 18.74842 | 14763 ft | 315 kts | 209° |
| 2026-04-27 21:35 | 69.88490 | 18.72129 | 14466 ft | 303 kts | 209° |
| 2026-04-27 21:35 | 69.86613 | 18.69502 | 14162 ft | 294 kts | 209° |
| 2026-04-27 21:35 | 69.84767 | 18.66922 | 13818 ft | 297 kts | 209° |
| 2026-04-27 21:36 | 69.82883 | 18.64296 | 13488 ft | 302 kts | 209° |
| 2026-04-27 21:36 | 69.81009 | 18.61688 | 13170 ft | 302 kts | 208° |
| 2026-04-27 21:36 | 69.79120 | 18.59065 | 12866 ft | 300 kts | 208° |
| 2026-04-27 21:36 | 69.77243 | 18.56464 | 12528 ft | 297 kts | 208° |
| 2026-04-27 21:37 | 69.75383 | 18.53890 | 12225 ft | 295 kts | 208° |
| 2026-04-27 21:37 | 69.73536 | 18.51338 | 11926 ft | 293 kts | 208° |
| 2026-04-27 21:37 | 69.71697 | 18.48803 | 11612 ft | 290 kts | 208° |
| 2026-04-27 21:37 | 69.69889 | 18.46453 | 11273 ft | 289 kts | 200° |
| 2026-04-27 21:38 | 69.67889 | 18.45812 | 10969 ft | 289 kts | 179° |
| 2026-04-27 21:38 | 69.65884 | 18.45934 | 10657 ft | 286 kts | 181° |
| 2026-04-27 21:38 | 69.63902 | 18.46013 | 10371 ft | 284 kts | 181° |
| 2026-04-27 21:38 | 69.61930 | 18.46104 | 10076 ft | 282 kts | 181° |
| 2026-04-27 21:39 | 69.59966 | 18.46201 | 9803 ft | 280 kts | 180° |
| 2026-04-27 21:39 | 69.58013 | 18.46298 | 9428 ft | 280 kts | 180° |
| 2026-04-27 21:39 | 69.56111 | 18.46395 | 9074 ft | 271 kts | 180° |
| 2026-04-27 21:39 | 69.54246 | 18.46488 | 8855 ft | 264 kts | 180° |
| 2026-04-27 21:40 | 69.52384 | 18.46581 | 8552 ft | 271 kts | 180° |
| 2026-04-27 21:40 | 69.50485 | 18.46677 | 8140 ft | 272 kts | 180° |
| 2026-04-27 21:40 | 69.48662 | 18.46770 | 8070 ft | 253 kts | 180° |
| 2026-04-27 21:40 | 69.46969 | 18.46896 | 8026 ft | 234 kts | 175° |
| 2026-04-27 21:41 | 69.45465 | 18.48371 | 7860 ft | 233 kts | 144° |
| 2026-04-27 21:41 | 69.44343 | 18.51797 | 7694 ft | 241 kts | 117° |
| 2026-04-27 21:41 | 69.43752 | 18.56208 | 7468 ft | 244 kts | 102° |
| 2026-04-27 21:41 | 69.43317 | 18.60901 | 7233 ft | 246 kts | 101° |
| 2026-04-27 21:42 | 69.42912 | 18.65619 | 7009 ft | 242 kts | 97° |
| 2026-04-27 21:42 | 69.43000 | 18.70286 | 6573 ft | 236 kts | 65° |
| 2026-04-27 21:42 | 69.43893 | 18.74006 | 6129 ft | 230 kts | 36° |
| 2026-04-27 21:42 | 69.45289 | 18.76103 | 5748 ft | 227 kts | 14° |
| 2026-04-27 21:43 | 69.46815 | 18.77323 | 5332 ft | 229 kts | 13° |
| 2026-04-27 21:43 | 69.48368 | 18.78481 | 5011 ft | 231 kts | 12° |
| 2026-04-27 21:43 | 69.49897 | 18.79568 | 4902 ft | 219 kts | 12° |
| 2026-04-27 21:43 | 69.51350 | 18.80139 | 4885 ft | 206 kts | 351° |
| 2026-04-27 21:44 | 69.52624 | 18.78519 | 4850 ft | 201 kts | 318° |
| 2026-04-27 21:44 | 69.53588 | 18.75538 | 4901 ft | 212 kts | 311° |
| 2026-04-27 21:44 | 69.54542 | 18.72229 | 4912 ft | 218 kts | 311° |
| 2026-04-27 21:44 | 69.55498 | 18.68854 | 4899 ft | 218 kts | 311° |
| 2026-04-27 21:45 | 69.56456 | 18.65472 | 4901 ft | 219 kts | 311° |
| 2026-04-27 21:45 | 69.57414 | 18.62089 | 4904 ft | 219 kts | 311° |
| 2026-04-27 21:45 | 69.58375 | 18.58690 | 4892 ft | 219 kts | 311° |
| 2026-04-27 21:45 | 69.59336 | 18.55297 | 4941 ft | 219 kts | 311° |
| 2026-04-27 21:46 | 69.60289 | 18.51941 | 4907 ft | 219 kts | 310° |
| 2026-04-27 21:46 | 69.61244 | 18.48555 | 4871 ft | 218 kts | 311° |
| 2026-04-27 21:46 | 69.62197 | 18.45154 | 4906 ft | 219 kts | 310° |
| 2026-04-27 21:46 | 69.63111 | 18.41680 | 4912 ft | 220 kts | 300° |
| 2026-04-27 21:47 | 69.63446 | 18.37425 | 4847 ft | 224 kts | 268° |
| 2026-04-27 21:47 | 69.62904 | 18.33227 | 4851 ft | 230 kts | 235° |
| 2026-04-27 21:47 | 69.61634 | 18.30406 | 4893 ft | 237 kts | 202° |
| 2026-04-27 21:47 | 69.60025 | 18.29828 | 4920 ft | 239 kts | 171° |
| 2026-04-27 21:48 | 69.58507 | 18.31692 | 4900 ft | 238 kts | 138° |
| 2026-04-27 21:48 | 69.57531 | 18.35423 | 4905 ft | 234 kts | 114° |
| 2026-04-27 21:48 | 69.56619 | 18.39331 | 4852 ft | 239 kts | 137° |
| 2026-04-27 21:48 | 69.55698 | 18.41001 | 4830 ft | 238 kts | 160° |
| 2026-04-27 21:49 | 69.53540 | 18.41294 | 4905 ft | 238 kts | 191° |
| 2026-04-27 21:49 | 69.51896 | 18.40514 | 4917 ft | 237 kts | 191° |
| 2026-04-27 21:49 | 69.50290 | 18.39764 | 4840 ft | 229 kts | 191° |
| 2026-04-27 21:49 | 69.48731 | 18.39045 | 4900 ft | 226 kts | 191° |
| 2026-04-27 21:50 | 69.47175 | 18.38325 | 4952 ft | 226 kts | 191° |
| 2026-04-27 21:50 | 69.45640 | 18.37613 | 4962 ft | 226 kts | 191° |
| 2026-04-27 21:50 | 69.44078 | 18.37022 | 4953 ft | 227 kts | 180° |
| 2026-04-27 21:50 | 69.42613 | 18.38412 | 4922 ft | 223 kts | 141° |
| 2026-04-27 21:51 | 69.41674 | 18.41851 | 4952 ft | 221 kts | 109° |
| 2026-04-27 21:51 | 69.41246 | 18.45990 | 4996 ft | 222 kts | 101° |
| 2026-04-27 21:51 | 69.40884 | 18.50282 | 4982 ft | 222 kts | 101° |
| 2026-04-27 21:51 | 69.40528 | 18.54553 | 4958 ft | 222 kts | 101° |
| 2026-04-27 21:52 | 69.40292 | 18.57372 | 4964 ft | 222 kts | 101° |
| 2026-04-27 21:52 | 69.39815 | 18.63034 | 4986 ft | 222 kts | 101° |
| 2026-04-27 21:52 | 69.39463 | 18.67313 | 4976 ft | 223 kts | 100° |
| 2026-04-27 21:52 | 69.39349 | 18.70245 | 4942 ft | 219 kts | 82° |
| 2026-04-27 21:53 | 69.40125 | 18.75268 | 4934 ft | 210 kts | 40° |
| 2026-04-27 21:53 | 69.40925 | 18.76836 | 4941 ft | 206 kts | 19° |
| 2026-04-27 21:53 | 69.42282 | 18.77398 | 5018 ft | 188 kts | 354° |
| 2026-04-27 21:53 | 69.43501 | 18.77259 | 4977 ft | 167 kts | 359° |
| 2026-04-27 21:54 | 69.44642 | 18.77407 | 4977 ft | 164 kts | 2° |
| 2026-04-27 21:54 | 69.45778 | 18.77748 | 4947 ft | 164 kts | 5° |
| 2026-04-27 21:54 | 69.46908 | 18.78231 | 4905 ft | 164 kts | 7° |
| 2026-04-27 21:54 | 69.48037 | 18.78809 | 5015 ft | 165 kts | 8° |
| 2026-04-27 21:55 | 69.49152 | 18.79441 | 4979 ft | 165 kts | 9° |
| 2026-04-27 21:55 | 69.50276 | 18.80117 | 4786 ft | 165 kts | 10° |
| 2026-04-27 21:55 | 69.51396 | 18.80821 | 4492 ft | 164 kts | 10° |
| 2026-04-27 21:55 | 69.52518 | 18.81534 | 4209 ft | 165 kts | 10° |
| 2026-04-27 21:56 | 69.53626 | 18.82246 | 3915 ft | 164 kts | 10° |
| 2026-04-27 21:56 | 69.55839 | 18.83682 | 3307 ft | 163 kts | 10° |
| 2026-04-27 21:56 | 69.56953 | 18.84410 | 2989 ft | 163 kts | 10° |
| 2026-04-27 21:57 | 69.58065 | 18.85137 | 2676 ft | 163 kts | 9° |
| 2026-04-27 21:57 | 69.59157 | 18.85851 | 2365 ft | 164 kts | 11° |
| 2026-04-27 21:57 | 69.60269 | 18.86582 | 2061 ft | 163 kts | 11° |
| 2026-04-27 21:57 | 69.61360 | 18.87302 | 1740 ft | 155 kts | 11° |
| 2026-04-27 21:58 | 69.62368 | 18.87960 | 1401 ft | 144 kts | 11° |
| 2026-04-27 21:58 | 69.63334 | 18.88555 | 1055 ft | 139 kts | 11° |
| 2026-04-27 21:58 | 69.64258 | 18.89129 | 799 ft | 136 kts | 13° |
| 2026-04-27 21:58 | 69.65187 | 18.89765 | 670 ft | 138 kts | 11° |
| 2026-04-27 21:59 | 69.66146 | 18.90408 | 429 ft | 143 kts | 13° |
| 2026-04-27 21:59 | 69.67105 | 18.91065 | 138 ft | 138 kts | 9° |
| 2026-04-27 21:59 | 69.67986 | 18.91639 | 39 ft | 115 kts | 12° |
| 2026-04-27 21:59 | 69.68616 | 18.92068 | 26 ft | 58 kts | 13° |
| 2026-04-27 22:00 | 69.68787 | 18.91995 | 24 ft | 21 kts | 269° |
| 2026-04-27 22:00 | 69.68740 | 18.91685 | 23 ft | 15 kts | 189° |
| 2026-04-27 22:00 | 69.68638 | 18.91623 | 28 ft | 15 kts | 195° |
| 2026-04-27 22:00 | 69.68523 | 18.91543 | 28 ft | 20 kts | 193° |
| 2026-04-27 22:01 | 69.68361 | 18.91500 | 29 ft | 27 kts | 182° |
| 2026-04-27 22:01 | 69.68210 | 18.91420 | 32 ft | 22 kts | 193° |
| 2026-04-27 22:01 | 69.68035 | 18.91298 | 36 ft | 29 kts | 194° |
| 2026-04-27 22:01 | 69.67924 | 18.91186 | 37 ft | 9 kts | 231° |
| 2026-04-27 22:02 | 69.67929 | 18.91026 | 37 ft | 6 kts | 282° |
| 2026-04-27 22:02 | 69.67936 | 18.90943 | 39 ft | 3 kts | 283° |
| 2026-04-27 22:02 | 69.67939 | 18.90902 | 39 ft | 1 kts | 283° |
| 2026-04-27 22:02 | 69.67940 | 18.90890 | 39 ft | 0 kts | 283° |